Time;durP1;ratioP1;P1;durP2;ratioP2;P2;SDS_P1;SDS_P2;PMS_P1;PMS_P2;Temp;Humidity;BMP_temperature;BMP_pressure;BME280_temperature;BME280_humidity;BME280_pressure;Samples;Min_cycle;Max_cycle;Signal;HPM_P1;HPM_P2
2023/06/18 00:01:17;;;;;;;;;;;;;;;22.38;43.43;101382.13;5086828;28;19920;-81
2023/06/18 00:03:42;;;;;;;;;;;;;;;22.37;43.43;101394.16;5084080;28;21006;-80
2023/06/18 00:06:08;;;;;;;;;;;;;;;22.30;43.53;101389.16;5086243;28;20388;-81
2023/06/18 00:08:33;;;;;;;;;;;;;;;22.25;43.48;101386.53;5084508;28;19930;-81
2023/06/18 00:10:58;;;;;;;;;;;;;;;22.25;43.27;101391.19;5087106;28;20502;-81
2023/06/18 00:13:24;;;;;;;;;;;;;;;22.25;43.67;101388.44;5085748;28;19916;-82
2023/06/18 00:15:49;;;;;;;;;;;;;;;22.23;43.65;101393.41;5070651;28;19924;-81
2023/06/18 00:18:14;;;;;;;;;;;;;;;22.18;44.01;101397.09;5088893;28;19943;-80
2023/06/18 00:20:39;;;;;;;;;;;;;;;22.18;43.51;101396.28;5082014;28;21163;-82
2023/06/18 00:23:05;;;;;;;;;;;;;;;22.19;43.56;101397.88;5070320;28;19930;-80
2023/06/18 00:25:30;;;;;;;;;;;;;;;22.19;43.55;101397.88;5088122;28;20449;-81
2023/06/18 00:27:56;;;;;;;;;;;;;;;22.19;43.18;101397.88;5086696;28;19962;-81
2023/06/18 00:30:21;;;;;;;;;;;;;;;22.15;43.59;101402.38;5084517;28;19944;-80
2023/06/18 00:32:48;;;;;;;;;;;;;;;22.07;44.24;101411.28;5086843;28;19916;-81
2023/06/18 00:35:17;;;;;;;;;;;;;;;21.93;44.03;101403.94;5089151;28;20003;-81
2023/06/18 00:37:45;;;;;;;;;;;;;;;21.90;44.07;101401.00;5086593;28;19920;-80
2023/06/18 00:40:12;;;;;;;;;;;;;;;21.87;44.22;101405.16;5089648;28;19962;-81
2023/06/18 00:42:39;;;;;;;;;;;;;;;21.81;44.43;101405.59;5085508;28;20335;-81
2023/06/18 00:45:05;;;;;;;;;;;;;;;21.82;44.12;101407.19;5086168;28;19932;-80
2023/06/18 00:47:31;;;;;;;;;;;;;;;21.83;43.97;101403.34;5086472;28;19930;-80
2023/06/18 00:49:56;;;;;;;;;;;;;;;21.83;43.84;101401.44;5088094;28;20322;-80
2023/06/18 00:52:23;;;;;;;;;;;;;;;21.82;43.93;101399.81;5085262;28;19977;-80
2023/06/18 00:54:49;;;;;;;;;;;;;;;21.82;43.89;101397.09;5087212;28;19920;-80
2023/06/18 00:57:15;;;;;;;;;;;;;;;21.81;43.93;101397.41;5085385;28;19964;-80
2023/06/18 00:59:42;;;;;;;;;;;;;;;21.78;43.78;101401.56;5088740;28;19924;-81
2023/06/18 01:02:08;;;;;;;;;;;;;;;21.76;43.94;101395.59;5086558;28;19923;-80
2023/06/18 01:04:35;;;;;;;;;;;;;;;21.66;44.43;101402.09;5079854;28;19928;-80
2023/06/18 01:07:01;;;;;;;;;;;;;;;21.65;44.15;101402.38;5078093;28;20020;-80
2023/06/18 01:09:27;;;;;;;;;;;;;;;21.62;44.03;101394.81;5085879;28;19939;-80
2023/06/18 01:11:53;;;;;;;;;;;;;;;21.59;43.84;101392.72;5087142;28;19955;-81
2023/06/18 01:14:21;;;;;;;;;;;;;;;21.56;44.15;101401.50;5082857;28;19959;-79
2023/06/18 01:16:47;;;;;;;;;;;;;;;21.54;44.21;101401.00;5085415;28;19916;-80
2023/06/18 01:19:21;;;;;;;;;;;;;;;21.51;44.30;101398.88;5089903;28;19920;-80
2023/06/18 01:21:53;;;;;;;;;;;;;;;21.45;44.66;101395.47;5084389;28;19973;-80
2023/06/18 01:24:23;;;;;;;;;;;;;;;21.44;44.41;101395.78;5086545;28;20039;-80
2023/06/18 01:26:54;;;;;;;;;;;;;;;21.45;44.26;101400.91;5083450;28;20029;-80
2023/06/18 01:29:20;;;;;;;;;;;;;;;21.41;44.59;101389.00;5081159;28;19916;-80
2023/06/18 01:31:45;;;;;;;;;;;;;;;21.36;44.47;101387.22;5083452;28;19921;-80
2023/06/18 01:34:12;;;;;;;;;;;;;;;21.36;44.62;101397.28;5086729;28;20345;-80
2023/06/18 01:36:56;;;;;;;;;;;;;;;21.36;44.67;101394.56;5086033;28;19916;-81
2023/06/18 01:39:31;;;;;;;;;;;;;;;21.34;44.65;101394.06;5084821;28;19923;-80
2023/06/18 01:42:07;;;;;;;;;;;;;;;21.33;44.37;101400.63;5084909;28;19920;-80
2023/06/18 01:44:35;;;;;;;;;;;;;;;21.32;44.33;101405.25;5066976;28;19932;-80
2023/06/18 01:47:00;;;;;;;;;;;;;;;21.28;44.52;101401.53;5086607;28;19973;-80
2023/06/18 01:49:26;;;;;;;;;;;;;;;21.26;44.40;101403.75;5085475;28;19920;-80
2023/06/18 01:51:52;;;;;;;;;;;;;;;21.23;44.57;101407.06;5086190;28;19970;-80
2023/06/18 01:54:18;;;;;;;;;;;;;;;21.21;44.59;101417.47;5088531;28;19963;-80
2023/06/18 01:56:44;;;;;;;;;;;;;;;21.22;44.65;101419.09;5083899;28;20011;-80
2023/06/18 01:59:09;;;;;;;;;;;;;;;21.23;44.71;101422.63;5084550;28;20368;-80
2023/06/18 02:01:34;;;;;;;;;;;;;;;21.25;44.77;101423.16;5084254;28;19950;-80
2023/06/18 02:04:00;;;;;;;;;;;;;;;21.28;44.68;101428.78;5085356;28;19920;-80
2023/06/18 02:06:25;;;;;;;;;;;;;;;21.28;44.71;101428.78;5085095;28;20007;-80
2023/06/18 02:08:50;;;;;;;;;;;;;;;21.28;44.40;101428.78;5083460;28;19961;-80
2023/06/18 02:11:16;;;;;;;;;;;;;;;21.28;44.89;101428.78;5086074;28;20014;-80
2023/06/18 02:13:41;;;;;;;;;;;;;;;21.30;45.00;101423.84;5083162;28;19973;-80
2023/06/18 02:16:06;;;;;;;;;;;;;;;21.30;45.05;101431.22;5084934;28;19931;-80
2023/06/18 02:18:32;;;;;;;;;;;;;;;21.30;44.96;101423.84;5085960;28;19920;-80
2023/06/18 02:20:57;;;;;;;;;;;;;;;21.31;44.99;101430.91;5083701;28;20418;-79
2023/06/18 02:23:23;;;;;;;;;;;;;;;21.28;45.24;101417.88;5084699;28;19920;-80
2023/06/18 02:25:48;;;;;;;;;;;;;;;21.26;45.20;101420.13;5080574;28;20839;-80
2023/06/18 02:28:13;;;;;;;;;;;;;;;21.24;45.30;101427.78;5085245;28;20439;-80
2023/06/18 02:30:39;;;;;;;;;;;;;;;21.25;45.28;101428.59;5082176;28;19923;-81
2023/06/18 02:33:06;;;;;;;;;;;;;;;21.20;45.63;101434.94;5087388;28;19916;-80
2023/06/18 02:35:32;;;;;;;;;;;;;;;21.14;45.48;101425.22;5085088;28;19920;-81
2023/06/18 02:37:57;;;;;;;;;;;;;;;21.15;45.52;101428.75;5080956;28;19924;-80
2023/06/18 02:40:23;;;;;;;;;;;;;;;21.15;45.53;101421.38;5086024;28;20367;-80
2023/06/18 02:42:48;;;;;;;;;;;;;;;21.14;45.63;101427.94;5081361;28;19923;-80
2023/06/18 02:45:17;;;;;;;;;;;;;;;21.15;45.27;101426.84;5088373;28;19928;-80
2023/06/18 02:47:46;;;;;;;;;;;;;;;21.16;45.33;101423.00;5079536;28;19924;-80
2023/06/18 02:50:12;;;;;;;;;;;;;;;21.17;45.34;101424.59;5084093;28;20000;-80
2023/06/18 02:52:38;;;;;;;;;;;;;;;21.18;45.28;101428.94;5081322;28;20416;-80
2023/06/18 02:55:04;;;;;;;;;;;;;;;21.15;45.61;101426.84;5084196;28;19922;-81
2023/06/18 02:57:30;;;;;;;;;;;;;;;21.13;45.36;101432.59;5063808;28;21558;-81
2023/06/18 02:59:55;;;;;;;;;;;;;;;21.18;45.63;101422.69;5080397;28;19916;-81
2023/06/18 03:02:20;;;;;;;;;;;;;;;21.21;45.43;101424.84;5081393;28;19924;-81
2023/06/18 03:04:46;;;;;;;;;;;;;;;21.19;45.41;101427.06;5080559;28;19936;-80
2023/06/18 03:07:11;;;;;;;;;;;;;;;21.21;45.52;101431.09;5082471;28;19924;-81
2023/06/18 03:09:36;;;;;;;;;;;;;;;21.23;45.55;101428.88;5063900;28;20402;-81
2023/06/18 03:12:02;;;;;;;;;;;;;;;21.23;45.09;101428.88;5083431;28;19916;-81
2023/06/18 03:14:27;;;;;;;;;;;;;;;21.22;45.38;101427.25;5087305;28;19977;-80
2023/06/18 03:16:52;;;;;;;;;;;;;;;21.21;45.49;101431.09;5066164;28;20177;-80
2023/06/18 03:19:17;;;;;;;;;;;;;;;21.24;45.47;101444.13;5084343;28;20007;-81
2023/06/18 03:21:43;;;;;;;;;;;;;;;21.26;45.74;101436.47;5083886;28;19931;-81
2023/06/18 03:24:08;;;;;;;;;;;;;;;21.27;45.55;101438.06;5080454;28;20299;-81
2023/06/18 03:26:36;;;;;;;;;;;;;;;21.30;45.58;101432.00;5068799;28;19919;-81
2023/06/18 03:29:02;;;;;;;;;;;;;;;21.30;45.76;101433.94;5084973;28;20394;-81
2023/06/18 03:31:27;;;;;;;;;;;;;;;21.20;46.73;101437.66;5086302;28;19980;-81
2023/06/18 03:33:52;;;;;;;;;;;;;;;21.17;46.39;101431.97;5084875;28;20399;-81
2023/06/18 03:36:18;;;;;;;;;;;;;;;21.21;46.20;101444.72;5082925;28;20555;-80
2023/06/18 03:38:45;;;;;;;;;;;;;;;21.22;46.16;101440.88;5083916;28;19924;-80
2023/06/18 03:41:12;;;;;;;;;;;;;;;21.25;46.22;101445.75;5087995;28;19916;-80
2023/06/18 03:43:38;;;;;;;;;;;;;;;21.29;46.26;101444.03;5083355;28;20032;-80
2023/06/18 03:46:03;;;;;;;;;;;;;;;21.35;46.22;101436.56;5085377;28;20338;-81
2023/06/18 03:48:28;;;;;;;;;;;;;;;21.39;46.02;101440.31;5085739;28;19974;-80
2023/06/18 03:50:54;;;;;;;;;;;;;;;21.42;46.30;101440.50;5084900;28;19916;-80
2023/06/18 03:53:19;;;;;;;;;;;;;;;21.45;46.22;101441.81;5091999;28;20358;-80
2023/06/18 03:55:46;;;;;;;;;;;;;;;21.46;46.29;101451.59;5082794;28;19919;-80
2023/06/18 03:58:11;;;;;;;;;;;;;;;21.49;46.38;101448.25;5082783;28;19959;-80
2023/06/18 04:00:37;;;;;;;;;;;;;;;21.54;46.12;101455.53;5081531;28;19970;-80
2023/06/18 04:03:05;;;;;;;;;;;;;;;21.54;46.51;101459.06;5078768;28;19927;-80
2023/06/18 04:05:30;;;;;;;;;;;;;;;21.58;46.31;101459.28;5081940;28;21645;-80
2023/06/18 04:07:56;;;;;;;;;;;;;;;21.60;46.47;101457.84;5080633;28;19960;-80
2023/06/18 04:10:21;;;;;;;;;;;;;;;21.63;46.49;101450.97;5083237;28;19955;-81
2023/06/18 04:12:46;;;;;;;;;;;;;;;21.64;46.41;101452.59;5082554;28;19924;-81
2023/06/18 04:15:12;;;;;;;;;;;;;;;21.66;46.53;101444.91;5085708;28;20180;-80
2023/06/18 04:17:41;;;;;;;;;;;;;;;21.68;46.30;101448.94;5082406;28;20003;-80
2023/06/18 04:20:06;;;;;;;;;;;;;;;21.72;46.39;101446.41;5084946;28;19924;-80
2023/06/18 04:22:33;;;;;;;;;;;;;;;21.79;46.53;101448.72;5058514;28;19924;-80
2023/06/18 04:24:58;;;;;;;;;;;;;;;21.83;46.22;101450.53;5066143;28;19920;-81
2023/06/18 04:27:24;;;;;;;;;;;;;;;21.83;46.41;101445.06;5080716;28;19922;-81
2023/06/18 04:29:49;;;;;;;;;;;;;;;21.79;46.45;101444.09;5082352;28;19917;-80
2023/06/18 04:32:14;;;;;;;;;;;;;;;21.76;46.55;101447.44;5085238;28;19977;-80
2023/06/18 04:34:40;;;;;;;;;;;;;;;21.73;46.66;101445.31;5085538;28;20372;-80
2023/06/18 04:37:06;;;;;;;;;;;;;;;21.73;46.76;101450.78;5082837;28;20014;-80
2023/06/18 04:39:31;;;;;;;;;;;;;;;21.77;46.54;101446.31;5073287;28;19972;-80
2023/06/18 04:41:56;;;;;;;;;;;;;;;21.79;46.71;101449.53;5080305;28;19924;-80
2023/06/18 04:44:22;;;;;;;;;;;;;;;21.80;46.64;101445.69;5080687;28;19925;-80
2023/06/18 04:46:47;;;;;;;;;;;;;;;21.82;46.78;101439.94;5081125;28;19920;-80
2023/06/18 04:49:13;;;;;;;;;;;;;;;21.85;46.69;101440.13;5079604;28;19978;-80
2023/06/18 04:51:39;;;;;;;;;;;;;;;21.87;46.58;101442.53;5081152;28;19920;-80
2023/06/18 04:54:05;;;;;;;;;;;;;;;21.91;46.84;101438.91;5081177;28;19973;-80
2023/06/18 04:56:30;;;;;;;;;;;;;;;21.94;46.81;101435.56;5082082;28;19924;-80
2023/06/18 04:58:56;;;;;;;;;;;;;;;22.06;47.17;101439.69;5084354;28;19930;-80
2023/06/18 05:01:21;;;;;;;;;;;;;;;22.17;46.86;101450.06;5081054;28;19966;-80
2023/06/18 05:03:46;;;;;;;;;;;;;;;22.29;46.91;101446.78;5081481;28;19945;-81
2023/06/18 05:06:12;;;;;;;;;;;;;;;22.45;46.53;101439.03;5083162;28;19916;-80
2023/06/18 05:08:37;;;;;;;;;;;;;;;22.59;46.45;101453.41;5082719;28;19920;-80
2023/06/18 05:11:03;;;;;;;;;;;;;;;22.71;46.41;101441.91;5079671;28;20007;-80
2023/06/18 05:13:28;;;;;;;;;;;;;;;22.79;46.43;101447.41;5082126;28;19962;-80
2023/06/18 05:15:53;;;;;;;;;;;;;;;22.90;46.44;101450.72;5075903;28;19917;-80
2023/06/18 05:18:19;;;;;;;;;;;;;;;22.98;46.68;101441.78;5084066;28;20840;-80
2023/06/18 05:20:44;;;;;;;;;;;;;;;23.04;46.28;101445.19;5083475;28;19924;-80
2023/06/18 05:23:09;;;;;;;;;;;;;;;23.12;46.61;101445.19;5085058;28;19938;-80
2023/06/18 05:25:37;;;;;;;;;;;;;;;23.27;46.22;101449.44;5084636;28;19949;-80
2023/06/18 05:28:03;;;;;;;;;;;;;;;23.40;46.34;101453.19;5081998;28;19920;-80
2023/06/18 05:30:28;;;;;;;;;;;;;;;23.51;46.39;101449.00;5081352;28;19924;-80
2023/06/18 05:32:53;;;;;;;;;;;;;;;23.62;46.03;101447.63;5077420;28;19923;-81
2023/06/18 05:35:18;;;;;;;;;;;;;;;23.74;46.06;101447.81;5087213;28;20415;-80
2023/06/18 05:37:44;;;;;;;;;;;;;;;23.87;45.83;101446.03;5083325;28;20009;-80
2023/06/18 05:40:09;;;;;;;;;;;;;;;23.93;45.74;101439.31;5079462;28;19924;-80
2023/06/18 05:42:35;;;;;;;;;;;;;;;24.03;45.67;101441.72;5081355;28;19920;-80
2023/06/18 05:45:00;;;;;;;;;;;;;;;24.13;45.66;101443.34;5080655;28;19920;-81
2023/06/18 05:47:26;;;;;;;;;;;;;;;24.23;45.62;101440.25;5081401;28;19923;-81
2023/06/18 05:49:51;;;;;;;;;;;;;;;24.32;45.51;101441.09;5079862;28;19952;-80
2023/06/18 05:52:16;;;;;;;;;;;;;;;24.41;45.40;101443.81;5081668;28;19959;-80
2023/06/18 05:54:42;;;;;;;;;;;;;;;24.51;45.64;101431.72;5078418;28;20002;-81
2023/06/18 05:57:07;;;;;;;;;;;;;;;24.64;45.49;101437.00;5082619;28;19923;-80
2023/06/18 05:59:32;;;;;;;;;;;;;;;24.77;45.23;101439.84;5060959;28;19925;-81
2023/06/18 06:01:58;;;;;;;;;;;;;;;24.88;45.08;101441.13;5077083;28;19916;-81
2023/06/18 06:04:23;;;;;;;;;;;;;;;25.00;45.25;101444.81;5077993;28;19928;-81
2023/06/18 06:06:49;;;;;;;;;;;;;;;25.18;45.11;101445.56;5079868;28;19916;-81
2023/06/18 06:09:14;;;;;;;;;;;;;;;25.36;45.05;101451.75;5076269;28;20287;-81
2023/06/18 06:11:40;;;;;;;;;;;;;;;25.49;44.79;101452.63;5077886;28;20048;-82
2023/06/18 06:14:05;;;;;;;;;;;;;;;25.64;44.68;101462.25;5081550;28;20699;-81
2023/06/18 06:16:30;;;;;;;;;;;;;;;25.74;44.54;101459.16;5082272;28;19927;-82
2023/06/18 06:18:56;;;;;;;;;;;;;;;25.84;44.45;101461.47;5082597;28;19973;-82
2023/06/18 06:21:21;;;;;;;;;;;;;;;25.96;43.95;101466.25;5080879;28;19920;-81
2023/06/18 06:23:46;;;;;;;;;;;;;;;25.89;43.96;101469.53;5081508;28;19916;-82
2023/06/18 06:26:12;;;;;;;;;;;;;;;25.88;44.14;101465.19;5077547;28;19922;-82
2023/06/18 06:28:37;;;;;;;;;;;;;;;25.94;44.20;101476.78;5080694;28;19920;-81
2023/06/18 06:31:02;;;;;;;;;;;;;;;26.01;44.03;101480.56;5080549;28;19927;-81
2023/06/18 06:33:30;;;;;;;;;;;;;;;26.05;44.04;101487.03;5076564;28;19925;-81
2023/06/18 06:35:56;;;;;;;;;;;;;;;26.12;44.18;101492.78;5082354;28;19956;-81
2023/06/18 06:38:21;;;;;;;;;;;;;;;26.22;44.09;101493.53;5079329;28;19947;-81
2023/06/18 06:40:46;;;;;;;;;;;;;;;26.39;44.03;101491.47;5081004;28;20450;-81
2023/06/18 06:43:12;;;;;;;;;;;;;;;26.50;43.70;101489.88;5081193;28;20524;-81
2023/06/18 06:45:37;;;;;;;;;;;;;;;26.61;43.88;101484.78;5076960;28;20640;-81
2023/06/18 06:48:02;;;;;;;;;;;;;;;26.76;43.62;101489.63;5077384;28;19919;-81
2023/06/18 06:50:28;;;;;;;;;;;;;;;26.94;43.37;101492.19;5081646;28;19920;-82
2023/06/18 06:52:53;;;;;;;;;;;;;;;27.14;43.56;101482.28;5083301;28;20453;-81
2023/06/18 06:55:18;;;;;;;;;;;;;;;27.31;43.18;101487.56;5080712;28;19959;-81
2023/06/18 06:57:44;;;;;;;;;;;;;;;27.42;43.04;101485.16;5082178;28;19926;-82
2023/06/18 07:00:10;;;;;;;;;;;;;;;27.57;42.90;101490.75;5081894;28;19920;-81
2023/06/18 07:02:36;;;;;;;;;;;;;;;27.73;42.58;101482.63;5087183;28;20311;-81
2023/06/18 07:05:01;;;;;;;;;;;;;;;27.84;42.47;101485.72;5084943;28;19925;-81
2023/06/18 07:07:26;;;;;;;;;;;;;;;27.95;42.35;101484.06;5085054;28;20382;-81
2023/06/18 07:09:52;;;;;;;;;;;;;;;28.10;42.26;101490.81;5067842;28;19916;-81
2023/06/18 07:12:17;;;;;;;;;;;;;;;28.17;42.22;101494.56;5080855;28;19999;-81
2023/06/18 07:14:42;;;;;;;;;;;;;;;28.35;42.43;101491.53;5087736;28;19924;-81
2023/06/18 07:17:08;;;;;;;;;;;;;;;28.53;42.11;101496.41;5086319;28;20402;-82
2023/06/18 07:19:33;;;;;;;;;;;;;;;28.66;41.70;101488.88;5085469;28;19928;-81
2023/06/18 07:21:59;;;;;;;;;;;;;;;28.66;42.17;101496.34;5083005;28;19966;-80
2023/06/18 07:24:24;;;;;;;;;;;;;;;28.68;42.28;101492.09;5082724;28;19920;-81
2023/06/18 07:26:50;;;;;;;;;;;;;;;28.77;42.38;101500.22;5085521;28;19921;-81
2023/06/18 07:29:15;;;;;;;;;;;;;;;28.87;42.05;101491.44;5085539;28;19922;-80
2023/06/18 07:31:41;;;;;;;;;;;;;;;28.99;42.16;101501.59;5080002;28;21860;-81
2023/06/18 07:34:06;;;;;;;;;;;;;;;29.02;41.53;101500.88;5083858;28;19924;-80
2023/06/18 07:36:31;;;;;;;;;;;;;;;29.13;42.17;101491.72;5083044;28;19923;-81
2023/06/18 07:39:00;;;;;;;;;;;;;;;29.33;41.62;101489.03;5087424;28;20366;-80
2023/06/18 07:41:25;;;;;;;;;;;;;;;29.50;41.56;101494.22;5078832;28;20382;-81
2023/06/18 07:43:51;;;;;;;;;;;;;;;29.65;41.22;101493.38;5084153;28;19920;-81
2023/06/18 07:46:16;;;;;;;;;;;;;;;29.82;40.94;101494.16;5084791;28;20327;-81
2023/06/18 07:48:42;;;;;;;;;;;;;;;29.97;41.10;101487.75;5083334;28;19977;-80
2023/06/18 07:51:07;;;;;;;;;;;;;;;30.19;41.00;101491.81;5088189;28;20363;-81
2023/06/18 07:53:32;;;;;;;;;;;;;;;30.34;40.16;101494.50;5084587;28;20007;-80
2023/06/18 07:55:58;;;;;;;;;;;;;;;30.48;40.17;101487.63;5085239;28;19916;-81
2023/06/18 07:58:23;;;;;;;;;;;;;;;30.64;39.53;101493.91;5089754;28;20346;-81
2023/06/18 08:00:49;;;;;;;;;;;;;;;30.79;39.38;101487.47;5087877;28;19916;-79
2023/06/18 08:03:14;;;;;;;;;;;;;;;30.91;38.99;101487.28;5085433;28;19924;-80
2023/06/18 08:05:39;;;;;;;;;;;;;;;30.97;38.22;101485.00;5088053;28;19928;-80
2023/06/18 08:08:05;;;;;;;;;;;;;;;30.86;36.75;101481.25;5086614;28;19920;-80
2023/06/18 08:10:30;;;;;;;;;;;;;;;30.75;38.58;101483.84;5069355;28;19927;-80
2023/06/18 08:12:56;;;;;;;;;;;;;;;30.65;37.98;101488.00;5086296;28;20505;-77
2023/06/18 08:15:22;;;;;;;;;;;;;;;30.60;38.95;101482.75;5085073;28;19961;-79
2023/06/18 08:17:47;;;;;;;;;;;;;;;30.57;38.78;101489.00;5085128;28;19924;-78
2023/06/18 08:20:12;;;;;;;;;;;;;;;30.48;38.65;101487.63;5083763;28;19977;-77
2023/06/18 08:22:38;;;;;;;;;;;;;;;30.26;37.16;101492.75;5083711;28;19920;-80
2023/06/18 08:25:03;;;;;;;;;;;;;;;30.23;38.71;101487.94;5084065;28;19966;-79
2023/06/18 08:27:28;;;;;;;;;;;;;;;30.43;38.37;101480.44;5067465;28;19916;-78
2023/06/18 08:29:54;;;;;;;;;;;;;;;30.74;38.08;101484.22;5084997;28;20457;-79
2023/06/18 08:32:19;;;;;;;;;;;;;;;31.08;38.04;101477.69;5082995;28;19927;-80
2023/06/18 08:34:45;;;;;;;;;;;;;;;31.36;37.05;101477.38;5084560;28;19926;-79
2023/06/18 08:37:11;;;;;;;;;;;;;;;31.54;36.78;101467.34;5082088;28;19970;-80
2023/06/18 08:39:36;;;;;;;;;;;;;;;31.54;36.35;101467.34;5081001;28;19916;-76
2023/06/18 08:42:02;;;;;;;;;;;;;;;31.51;36.92;101476.41;5082870;28;20327;-80
2023/06/18 08:44:29;;;;;;;;;;;;;;;31.51;36.30;101479.19;5083879;28;19942;-80
2023/06/18 08:47:00;;;;;;;;;;;;;;;31.53;35.47;101474.06;5082306;28;19952;-81
2023/06/18 08:49:26;;;;;;;;;;;;;;;31.56;34.17;101481.63;5082822;28;20006;-81
2023/06/18 08:51:53;;;;;;;;;;;;;;;31.64;35.76;101474.22;5085861;28;19923;-78
2023/06/18 08:54:18;;;;;;;;;;;;;;;31.62;34.71;101478.56;5084868;28;19921;-78
2023/06/18 08:56:45;;;;;;;;;;;;;;;31.53;35.10;101482.38;5081986;28;19920;-79
2023/06/18 08:59:11;;;;;;;;;;;;;;;31.37;35.53;101481.72;5084027;28;19947;-78
2023/06/18 09:01:37;;;;;;;;;;;;;;;31.33;35.92;101485.63;5083125;28;20373;-77
2023/06/18 09:04:02;;;;;;;;;;;;;;;31.41;34.93;101490.88;5086268;28;19955;-78
2023/06/18 09:06:28;;;;;;;;;;;;;;;31.49;35.81;101478.75;5083477;28;20040;-80
2023/06/18 09:08:54;;;;;;;;;;;;;;;31.72;35.53;101484.25;5064151;28;20110;-79
2023/06/18 09:11:20;;;;;;;;;;;;;;;31.91;35.30;101483.31;5084254;28;20388;-80
2023/06/18 09:13:45;;;;;;;;;;;;;;;32.13;35.81;101482.41;5081819;28;19920;-80
2023/06/18 09:16:10;;;;;;;;;;;;;;;32.37;34.98;101486.69;5085374;28;20360;-78
2023/06/18 09:18:36;;;;;;;;;;;;;;;32.51;34.56;101480.53;5082298;28;19927;-81
2023/06/18 09:21:03;;;;;;;;;;;;;;;32.67;33.70;101481.06;5084558;28;19921;-84
2023/06/18 09:23:28;;;;;;;;;;;;;;;32.84;32.95;101473.31;5081965;28;19916;-81
2023/06/18 09:25:54;;;;;;;;;;;;;;;32.94;31.56;101478.97;5082333;28;20277;-82
2023/06/18 09:28:20;;;;;;;;;;;;;;;33.07;33.06;101470.34;5084347;28;20365;-79
2023/06/18 09:30:50;;;;;;;;;;;;;;;33.15;33.01;101469.22;5081268;28;20043;-79
2023/06/18 09:33:25;;;;;;;;;;;;;;;33.05;32.99;101467.97;5085177;28;19920;-80
2023/06/18 09:35:57;;;;;;;;;;;;;;;33.07;33.10;101473.13;5081241;28;19916;-80
2023/06/18 09:38:22;;;;;;;;;;;;;;;33.05;32.89;101465.19;5068937;28;20002;-80
2023/06/18 09:40:48;;;;;;;;;;;;;;;33.12;32.86;101470.00;5080736;28;19999;-80
2023/06/18 09:43:13;;;;;;;;;;;;;;;33.22;32.60;101472.88;5082206;28;19947;-81
2023/06/18 09:45:39;;;;;;;;;;;;;;;33.37;32.80;101464.63;5087701;28;20308;-81
2023/06/18 09:48:05;;;;;;;;;;;;;;;33.62;32.58;101457.28;5082589;28;19925;-82
2023/06/18 09:50:31;;;;;;;;;;;;;;;33.84;31.76;101463.72;5065128;28;20011;-81
2023/06/18 09:52:56;;;;;;;;;;;;;;;34.02;31.54;101466.63;5079048;28;19916;-79
2023/06/18 09:55:26;;;;;;;;;;;;;;;34.16;30.90;101466.69;5080751;28;19927;-79
2023/06/18 09:57:51;;;;;;;;;;;;;;;34.33;31.22;101460.38;5082008;28;19916;-79
2023/06/18 10:00:17;;;;;;;;;;;;;;;34.46;30.63;101458.03;5080578;28;19947;-78
2023/06/18 10:02:42;;;;;;;;;;;;;;;34.47;29.62;101471.56;5077608;28;19952;-79
2023/06/18 10:05:07;;;;;;;;;;;;;;;34.30;29.70;101463.94;5081512;28;19924;-79
2023/06/18 10:07:33;;;;;;;;;;;;;;;34.20;30.24;101467.47;5077718;28;19993;-81
2023/06/18 10:09:59;;;;;;;;;;;;;;;33.99;30.44;101461.84;5083070;28;19947;-82
2023/06/18 10:12:26;;;;;;;;;;;;;;;34.02;30.73;101456.28;5078096;28;19958;-83
2023/06/18 10:14:53;;;;;;;;;;;;;;;34.24;30.40;101460.72;5076852;28;19958;-81
2023/06/18 10:17:23;;;;;;;;;;;;;;;34.49;30.27;101457.25;5080290;28;19966;-79
2023/06/18 10:20:03;;;;;;;;;;;;;;;34.57;30.36;101453.28;5080191;28;19956;-80
2023/06/18 10:22:32;;;;;;;;;;;;;;;34.63;30.67;101462.81;5083971;28;19920;-82
2023/06/18 10:24:57;;;;;;;;;;;;;;;34.64;30.61;101469.97;5080326;28;19927;-81
2023/06/18 10:27:23;;;;;;;;;;;;;;;34.53;30.49;101469.97;5079940;28;20335;-82
2023/06/18 10:29:48;;;;;;;;;;;;;;;34.60;30.68;101468.38;5076508;28;19995;-80
2023/06/18 10:32:14;;;;;;;;;;;;;;;34.65;30.78;101466.03;5079635;28;20070;-82
2023/06/18 10:34:41;;;;;;;;;;;;;;;34.63;30.27;101462.03;5082562;28;20396;-78
2023/06/18 10:37:07;;;;;;;;;;;;;;;34.74;30.87;101473.97;5079057;28;19928;-78
2023/06/18 10:39:34;;;;;;;;;;;;;;;34.97;30.58;101468.84;5080707;28;19920;-81
2023/06/18 10:42:09;;;;;;;;;;;;;;;35.21;30.67;101469.25;5078373;28;20015;-81
2023/06/18 10:44:47;;;;;;;;;;;;;;;35.39;30.84;101470.03;5081421;28;19924;-82
2023/06/18 10:47:22;;;;;;;;;;;;;;;35.55;28.68;101459.25;5077595;28;19921;-82
2023/06/18 10:50:03;;;;;;;;;;;;;;;35.54;29.86;101463.22;5083200;28;19920;-83
2023/06/18 10:52:30;;;;;;;;;;;;;;;35.57;28.97;101456.06;5079482;28;21810;-82
2023/06/18 10:54:56;;;;;;;;;;;;;;;35.62;28.55;101466.78;5079802;28;20499;-82
2023/06/18 10:57:26;;;;;;;;;;;;;;;35.60;25.00;101460.84;5066211;28;19926;-81
2023/06/18 10:59:52;;;;;;;;;;;;;;;35.37;24.73;101464.06;5079805;28;19920;-80
2023/06/18 11:02:32;;;;;;;;;;;;;;;35.15;28.71;101468.84;5075340;28;21179;-83
2023/06/18 11:04:57;;;;;;;;;;;;;;;35.23;28.23;101461.28;5059168;28;19990;-80
2023/06/18 11:07:27;;;;;;;;;;;;;;;35.41;28.58;101448.13;5084871;28;20349;-80
2023/06/18 11:09:52;;;;;;;;;;;;;;;35.52;28.60;101456.47;5083739;28;19988;-82
2023/06/18 11:12:19;;;;;;;;;;;;;;;35.49;28.33;101457.25;5082170;28;20467;-78
2023/06/18 11:15:03;;;;;;;;;;;;;;;35.54;27.36;101456.84;5079720;28;20400;-81
2023/06/18 11:17:29;;;;;;;;;;;;;;;35.56;28.27;101452.50;5079753;28;19920;-82
2023/06/18 11:19:54;;;;;;;;;;;;;;;35.67;27.93;101450.44;5084503;28;19916;-81
2023/06/18 11:22:20;;;;;;;;;;;;;;;35.63;28.45;101448.88;5075090;28;19959;-81
2023/06/18 11:24:46;;;;;;;;;;;;;;;35.53;28.48;101447.69;5062054;28;20579;-82
2023/06/18 11:27:12;;;;;;;;;;;;;;;35.41;28.01;101456.50;5074290;28;20012;-82
2023/06/18 11:29:38;;;;;;;;;;;;;;;35.33;28.57;101452.88;5081412;28;19920;-83
2023/06/18 11:32:08;;;;;;;;;;;;;;;35.32;28.39;101448.50;5075738;28;19924;-82
2023/06/18 11:34:39;;;;;;;;;;;;;;;35.38;28.18;101443.38;5073450;28;19920;-82
2023/06/18 11:37:05;;;;;;;;;;;;;;;35.46;28.23;101444.94;5078363;28;19942;-83
2023/06/18 11:39:30;;;;;;;;;;;;;;;35.51;28.02;101438.94;5077234;28;20378;-80
2023/06/18 11:42:10;;;;;;;;;;;;;;;35.46;26.56;101438.56;5077740;28;20509;-82
2023/06/18 11:44:44;;;;;;;;;;;;;;;35.53;27.78;101436.53;5059124;28;19928;-80
2023/06/18 11:47:09;;;;;;;;;;;;;;;35.71;27.11;101444.84;5079294;28;19919;-80
2023/06/18 11:49:34;;;;;;;;;;;;;;;35.59;26.40;101434.94;5080303;28;19920;-82
2023/06/18 11:51:59;;;;;;;;;;;;;;;35.58;26.74;101438.16;5079358;28;19928;-80
2023/06/18 11:54:25;;;;;;;;;;;;;;;35.64;26.74;101431.75;5081780;28;19916;-79
2023/06/18 11:56:53;;;;;;;;;;;;;;;35.57;26.01;101436.56;5077382;28;20017;-81
2023/06/18 11:59:19;;;;;;;;;;;;;;;35.61;26.47;101432.56;5075361;28;19923;-79
2023/06/18 12:01:45;;;;;;;;;;;;;;;35.65;24.89;101433.31;5079564;28;21540;-80
2023/06/18 12:04:11;;;;;;;;;;;;;;;35.65;25.86;101444.47;5077913;28;20430;-81
2023/06/18 12:06:40;;;;;;;;;;;;;;;35.64;26.05;101436.53;5078794;28;19967;-82
2023/06/18 12:09:14;;;;;;;;;;;;;;;35.63;26.66;101448.88;5081546;28;19920;-81
2023/06/18 12:11:42;;;;;;;;;;;;;;;35.64;26.40;101442.88;5080928;28;20502;-78
2023/06/18 12:14:11;;;;;;;;;;;;;;;35.59;26.59;101436.94;5083535;28;19984;-80
2023/06/18 12:16:39;;;;;;;;;;;;;;;35.48;26.43;101448.13;5082169;28;19920;-79
2023/06/18 12:19:04;;;;;;;;;;;;;;;35.44;26.17;101441.75;5077230;28;19923;-79
2023/06/18 12:21:30;;;;;;;;;;;;;;;35.39;26.58;101442.19;5077181;28;19920;-82
2023/06/18 12:23:57;;;;;;;;;;;;;;;35.36;25.94;101440.97;5079824;28;19957;-80
2023/06/18 12:26:23;;;;;;;;;;;;;;;35.32;25.46;101442.94;5077386;28;19920;-80
2023/06/18 12:28:49;;;;;;;;;;;;;;;35.29;25.86;101449.31;5079909;28;19927;-78
2023/06/18 12:31:15;;;;;;;;;;;;;;;35.21;25.35;101449.75;5080597;28;19920;-80